Silver Cloud — C6MQ5 — position and weather

sailwx.info

Track history (hours):
 
Tides and Currents Weather Stations Pressure Air Temp Water Temp Dewpoint Dewpoint Depression Visibility Wind Speed Wind Dir Waves Ship Positions

Silver Cloud

Operator: V Ships Leisure SAM

Last reported at 2017-Apr-29 04:28 UTC. Time now 2017-Apr-30 14:50 UTC.
Position N 35°44' E 024°33'.

Length 156 m; draft 5.7 m.

Type: Passenger vessel. MMSI: 309027000.

Date/timePositionNaut miles runAvg speedWind from/ knotsBaromVisibWave heightAir tempDewpointWater temp
2017-Apr-29 04:28N 35°44' E 024°33'1716.4
2017-Apr-29 03:26N 35°49' E 024°13'716.4
2017-Apr-29 03:00N 35°51' E 024°05'916.3
2017-Apr-29 02:28N 35°54' E 023°55'816.6
2017-Apr-29 02:01N 35°56' E 023°46'1216.6
2017-Apr-29 01:19N 35°60' E 023°32'516.7
2017-Apr-29 01:01N 36°01' E 023°26'61 2.1
2017-Apr-27 20:02N 37°03' E 023°26'218.0
2017-Apr-27 19:54N 37°05' E 023°28'718.0
2017-Apr-27 19:29N 37°11' E 023°33'2617.5
2017-Apr-27 18:00N 37°36' E 023°42'917.9
2017-Apr-27 17:31N 37°44' E 023°40'917.4
2017-Apr-27 17:01N 37°52' E 023°36'4 8.8
2017-Apr-27 16:30N 37°56' E 023°38'0 0.0
2017-Apr-27 15:59N 37°56' E 023°38'0 0.0
2017-Apr-27 15:29N 37°56' E 023°38'0 0.0
2017-Apr-27 14:59N 37°56' E 023°38'0 0.0
2017-Apr-27 13:59N 37°56' E 023°38'0 0.0
2017-Apr-27 13:29N 37°56' E 023°38'0 0.0
2017-Apr-27 12:59N 37°56' E 023°38'0 0.0
2017-Apr-27 12:29N 37°56' E 023°38'0 0.0
2017-Apr-27 11:59N 37°56' E 023°38'0 0.0
2017-Apr-27 11:29N 37°56' E 023°38'0 0.0
2017-Apr-27 10:59N 37°56' E 023°38'0 0.0
2017-Apr-27 10:29N 37°56' E 023°38'0 0.0
2017-Apr-27 09:59N 37°56' E 023°38'0 0.0
2017-Apr-27 09:31N 37°56' E 023°38'0 0.0
2017-Apr-27 08:56N 37°56' E 023°38'0 0.0
2017-Apr-27 08:29N 37°56' E 023°38'0 0.0
2017-Apr-27 07:59N 37°56' E 023°38'0 0.0
2017-Apr-27 07:29N 37°56' E 023°38'0 0.1
2017-Apr-27 07:00N 37°56' E 023°38'0 0.0
2017-Apr-27 06:30N 37°56' E 023°38'0 0.0
2017-Apr-27 06:00N 37°56' E 023°38'0 0.0
2017-Apr-27 04:55N 37°56' E 023°38'1 3.0
2017-Apr-27 04:31N 37°56' E 023°37'1 1.4
2017-Apr-27 04:01N 37°55' E 023°37'611.1
2017-Apr-27 03:30N 37°50' E 023°39'714.8
2017-Apr-27 03:01N 37°44' E 023°43'713.7
2017-Apr-27 02:30N 37°38' E 023°49'714.1
2017-Apr-27 02:00N 37°34' E 023°56'714.8
2017-Apr-27 01:30N 37°34' E 024°05'714.7
2017-Apr-27 01:00N 37°40' E 024°12'714.8
2017-Apr-27 00:31N 37°45' E 024°18'814.8
2017-Apr-27 00:00N 37°49' E 024°26'714.9
2017-Apr-26 23:30N 37°53' E 024°34'10014.8
2017-Apr-26 16:47N 39°32' E 024°50'515.4
2017-Apr-26 16:28N 39°36' E 024°52'1514.7
2017-Apr-26 15:25N 39°51' E 024°59'3 7.3
2017-Apr-26 14:58N 39°52' E 025°03'0 0.0
2017-Apr-26 03:26N 39°52' E 025°03'2 4.3
2017-Apr-26 02:55N 39°51' E 025°00'3 6.8
2017-Apr-26 02:31N 39°49' E 024°60'3 6.8
2017-Apr-26 02:01N 39°46' E 025°02'111 3.3
2017-Apr-24 16:02N 37°56' E 025°24'112.9
2017-Apr-24 15:59N 37°55' E 025°24'612.9
2017-Apr-24 15:30N 37°49' E 025°24'613.0
2017-Apr-24 15:00N 37°43' E 025°24'612.3
2017-Apr-24 14:30N 37°37' E 025°22'9 9.2
2017-Apr-24 13:30N 37°28' E 025°19'0 0.0
2017-Apr-24 13:00N 37°28' E 025°19'0 0.0
2017-Apr-24 12:27N 37°28' E 025°19'0 0.0
2017-Apr-24 12:00N 37°28' E 025°19'0 0.0
2017-Apr-24 11:30N 37°28' E 025°19'0 0.0
2017-Apr-24 11:00N 37°28' E 025°19'0 0.0
2017-Apr-24 10:30N 37°28' E 025°19'0 0.0
2017-Apr-24 10:00N 37°28' E 025°19'0 0.0
2017-Apr-24 09:30N 37°28' E 025°19'0 0.0
2017-Apr-24 09:00N 37°28' E 025°19'0 0.0
2017-Apr-24 08:30N 37°28' E 025°19'0 0.0
2017-Apr-24 07:57N 37°28' E 025°19'0 0.0
2017-Apr-24 07:30N 37°28' E 025°19'0 0.0
2017-Apr-24 07:00N 37°28' E 025°19'0 0.0
2017-Apr-24 06:30N 37°28' E 025°19'0 0.0
2017-Apr-24 06:00N 37°28' E 025°19'0 0.0
2017-Apr-24 05:30N 37°28' E 025°19'0 0.0
2017-Apr-24 05:00N 37°28' E 025°19'0 0.0
2017-Apr-24 04:30N 37°28' E 025°19'2 4.3
2017-Apr-24 04:00N 37°28' E 025°17'612.6
2017-Apr-24 03:31N 37°33' E 025°23'713.3
2017-Apr-24 03:00N 37°35' E 025°31'612.4
2017-Apr-24 02:30N 37°37' E 025°38'612.4
2017-Apr-24 02:00N 37°39' E 025°45'  
2017-Apr-20 01:13N 37°04' E 023°27'3711.5
2017-Apr-19 21:59N 37°39' E 023°42'612.0
2017-Apr-19 21:30N 37°45' E 023°39'612.0
2017-Apr-19 21:00N 37°50' E 023°36'611.1
2017-Apr-19 20:30N 37°56' E 023°37'1 3.0
2017-Apr-19 20:00N 37°56' E 023°38'0 0.0
2017-Apr-19 19:30N 37°56' E 023°38'0 0.0
2017-Apr-19 19:00N 37°56' E 023°38'0 0.0
2017-Apr-19 18:30N 37°56' E 023°38'0 0.0
2017-Apr-19 18:00N 37°56' E 023°38'0 0.0
2017-Apr-19 17:30N 37°56' E 023°38'0 0.0
2017-Apr-19 17:00N 37°56' E 023°38'0 0.0
2017-Apr-19 16:30N 37°56' E 023°38'0 0.0
2017-Apr-19 16:00N 37°56' E 023°38'0 0.0
2017-Apr-19 15:30N 37°56' E 023°38'0 0.0
2017-Apr-19 15:00N 37°56' E 023°38'0 0.0
2017-Apr-19 14:30N 37°56' E 023°38'0 0.0
2017-Apr-19 13:30N 37°56' E 023°38'0 0.0
2017-Apr-19 13:00N 37°56' E 023°38'0 0.0
2017-Apr-19 12:30N 37°56' E 023°38'0 0.0
2017-Apr-19 12:00N 37°56' E 023°38'0 0.0
2017-Apr-19 11:30N 37°56' E 023°38'0 0.0
2017-Apr-19 10:36N 37°56' E 023°38'0 0.1
2017-Apr-19 10:30N 37°56' E 023°38'0 0.0
2017-Apr-19 09:31N 37°56' E 023°38'0 0.0
2017-Apr-19 09:00N 37°56' E 023°38'0 0.0
2017-Apr-19 08:30N 37°56' E 023°38'0 0.0
2017-Apr-19 08:00N 37°56' E 023°38'0 0.0
2017-Apr-19 07:30N 37°56' E 023°38'0 0.0
2017-Apr-19 07:00N 37°56' E 023°38'0 0.0
2017-Apr-19 06:30N 37°56' E 023°38'0 0.0
2017-Apr-19 05:57N 37°56' E 023°38'0 0.0
2017-Apr-19 05:27N 37°56' E 023°38'0 0.0
2017-Apr-19 05:00N 37°56' E 023°38'0 0.0
2017-Apr-19 04:30N 37°56' E 023°38'  
Track history (hours):
 
Tides and Currents Weather Stations Pressure Air Temp Water Temp Dewpoint Dewpoint Depression Visibility Wind Speed Wind Dir Waves Ship Positions

Silver Cloud

Operator: V Ships Leisure SAM

Last reported at 2017-Apr-29 04:28 UTC. Time now 2017-Apr-30 14:50 UTC.
Position N 35°44' E 024°33'.

Length 156 m; draft 5.7 m.

Type: Passenger vessel. MMSI: 309027000.

Date/timePositionNaut miles runAvg speedWind from/ knotsBaromVisibWave heightAir tempDewpointWater temp
2017-Apr-29 04:28N 35°44' E 024°33'1716.4
2017-Apr-29 03:26N 35°49' E 024°13'716.4
2017-Apr-29 03:00N 35°51' E 024°05'916.3
2017-Apr-29 02:28N 35°54' E 023°55'816.6
2017-Apr-29 02:01N 35°56' E 023°46'1216.6
2017-Apr-29 01:19N 35°60' E 023°32'516.7
2017-Apr-29 01:01N 36°01' E 023°26'61 2.1
2017-Apr-27 20:02N 37°03' E 023°26'218.0
2017-Apr-27 19:54N 37°05' E 023°28'718.0
2017-Apr-27 19:29N 37°11' E 023°33'2617.5
2017-Apr-27 18:00N 37°36' E 023°42'917.9
2017-Apr-27 17:31N 37°44' E 023°40'917.4
2017-Apr-27 17:01N 37°52' E 023°36'4 8.8
2017-Apr-27 16:30N 37°56' E 023°38'0 0.0
2017-Apr-27 15:59N 37°56' E 023°38'0 0.0
2017-Apr-27 15:29N 37°56' E 023°38'0 0.0
2017-Apr-27 14:59N 37°56' E 023°38'0 0.0
2017-Apr-27 13:59N 37°56' E 023°38'0 0.0
2017-Apr-27 13:29N 37°56' E 023°38'0 0.0
2017-Apr-27 12:59N 37°56' E 023°38'0 0.0
2017-Apr-27 12:29N 37°56' E 023°38'0 0.0
2017-Apr-27 11:59N 37°56' E 023°38'0 0.0
2017-Apr-27 11:29N 37°56' E 023°38'0 0.0
2017-Apr-27 10:59N 37°56' E 023°38'0 0.0
2017-Apr-27 10:29N 37°56' E 023°38'0 0.0
2017-Apr-27 09:59N 37°56' E 023°38'0 0.0
2017-Apr-27 09:31N 37°56' E 023°38'0 0.0
2017-Apr-27 08:56N 37°56' E 023°38'0 0.0
2017-Apr-27 08:29N 37°56' E 023°38'0 0.0
2017-Apr-27 07:59N 37°56' E 023°38'0 0.0
2017-Apr-27 07:29N 37°56' E 023°38'0 0.1
2017-Apr-27 07:00N 37°56' E 023°38'0 0.0
2017-Apr-27 06:30N 37°56' E 023°38'0 0.0
2017-Apr-27 06:00N 37°56' E 023°38'0 0.0
2017-Apr-27 04:55N 37°56' E 023°38'1 3.0
2017-Apr-27 04:31N 37°56' E 023°37'1 1.4
2017-Apr-27 04:01N 37°55' E 023°37'611.1
2017-Apr-27 03:30N 37°50' E 023°39'714.8
2017-Apr-27 03:01N 37°44' E 023°43'713.7
2017-Apr-27 02:30N 37°38' E 023°49'714.1
2017-Apr-27 02:00N 37°34' E 023°56'714.8
2017-Apr-27 01:30N 37°34' E 024°05'714.7
2017-Apr-27 01:00N 37°40' E 024°12'714.8
2017-Apr-27 00:31N 37°45' E 024°18'814.8
2017-Apr-27 00:00N 37°49' E 024°26'714.9
2017-Apr-26 23:30N 37°53' E 024°34'10014.8
2017-Apr-26 16:47N 39°32' E 024°50'515.4
2017-Apr-26 16:28N 39°36' E 024°52'1514.7
2017-Apr-26 15:25N 39°51' E 024°59'3 7.3
2017-Apr-26 14:58N 39°52' E 025°03'0 0.0
2017-Apr-26 03:26N 39°52' E 025°03'2 4.3
2017-Apr-26 02:55N 39°51' E 025°00'3 6.8
2017-Apr-26 02:31N 39°49' E 024°60'3 6.8
2017-Apr-26 02:01N 39°46' E 025°02'111 3.3
2017-Apr-24 16:02N 37°56' E 025°24'112.9
2017-Apr-24 15:59N 37°55' E 025°24'612.9
2017-Apr-24 15:30N 37°49' E 025°24'613.0
2017-Apr-24 15:00N 37°43' E 025°24'612.3
2017-Apr-24 14:30N 37°37' E 025°22'9 9.2
2017-Apr-24 13:30N 37°28' E 025°19'0 0.0
2017-Apr-24 13:00N 37°28' E 025°19'0 0.0
2017-Apr-24 12:27N 37°28' E 025°19'0 0.0
2017-Apr-24 12:00N 37°28' E 025°19'0 0.0
2017-Apr-24 11:30N 37°28' E 025°19'0 0.0
2017-Apr-24 11:00N 37°28' E 025°19'0 0.0
2017-Apr-24 10:30N 37°28' E 025°19'0 0.0
2017-Apr-24 10:00N 37°28' E 025°19'0 0.0
2017-Apr-24 09:30N 37°28' E 025°19'0 0.0
2017-Apr-24 09:00N 37°28' E 025°19'0 0.0
2017-Apr-24 08:30N 37°28' E 025°19'0 0.0
2017-Apr-24 07:57N 37°28' E 025°19'0 0.0
2017-Apr-24 07:30N 37°28' E 025°19'0 0.0
2017-Apr-24 07:00N 37°28' E 025°19'0 0.0
2017-Apr-24 06:30N 37°28' E 025°19'0 0.0
2017-Apr-24 06:00N 37°28' E 025°19'0 0.0
2017-Apr-24 05:30N 37°28' E 025°19'0 0.0
2017-Apr-24 05:00N 37°28' E 025°19'0 0.0
2017-Apr-24 04:30N 37°28' E 025°19'2 4.3
2017-Apr-24 04:00N 37°28' E 025°17'612.6
2017-Apr-24 03:31N 37°33' E 025°23'713.3
2017-Apr-24 03:00N 37°35' E 025°31'612.4
2017-Apr-24 02:30N 37°37' E 025°38'612.4
2017-Apr-24 02:00N 37°39' E 025°45'  
2017-Apr-20 01:13N 37°04' E 023°27'3711.5
2017-Apr-19 21:59N 37°39' E 023°42'612.0
2017-Apr-19 21:30N 37°45' E 023°39'612.0
2017-Apr-19 21:00N 37°50' E 023°36'611.1
2017-Apr-19 20:30N 37°56' E 023°37'1 3.0
2017-Apr-19 20:00N 37°56' E 023°38'0 0.0
2017-Apr-19 19:30N 37°56' E 023°38'0 0.0
2017-Apr-19 19:00N 37°56' E 023°38'0 0.0
2017-Apr-19 18:30N 37°56' E 023°38'0 0.0
2017-Apr-19 18:00N 37°56' E 023°38'0 0.0
2017-Apr-19 17:30N 37°56' E 023°38'0 0.0
2017-Apr-19 17:00N 37°56' E 023°38'0 0.0
2017-Apr-19 16:30N 37°56' E 023°38'0 0.0
2017-Apr-19 16:00N 37°56' E 023°38'0 0.0
2017-Apr-19 15:30N 37°56' E 023°38'0 0.0
2017-Apr-19 15:00N 37°56' E 023°38'0 0.0
2017-Apr-19 14:30N 37°56' E 023°38'0 0.0
2017-Apr-19 13:30N 37°56' E 023°38'0 0.0
2017-Apr-19 13:00N 37°56' E 023°38'0 0.0
2017-Apr-19 12:30N 37°56' E 023°38'0 0.0
2017-Apr-19 12:00N 37°56' E 023°38'0 0.0
2017-Apr-19 11:30N 37°56' E 023°38'0 0.0
2017-Apr-19 10:36N 37°56' E 023°38'0 0.1
2017-Apr-19 10:30N 37°56' E 023°38'0 0.0
2017-Apr-19 09:31N 37°56' E 023°38'0 0.0
2017-Apr-19 09:00N 37°56' E 023°38'0 0.0
2017-Apr-19 08:30N 37°56' E 023°38'0 0.0
2017-Apr-19 08:00N 37°56' E 023°38'0 0.0
2017-Apr-19 07:30N 37°56' E 023°38'0 0.0
2017-Apr-19 07:00N 37°56' E 023°38'0 0.0
2017-Apr-19 06:30N 37°56' E 023°38'0 0.0
2017-Apr-19 05:57N 37°56' E 023°38'0 0.0
2017-Apr-19 05:27N 37°56' E 023°38'0 0.0
2017-Apr-19 05:00N 37°56' E 023°38'0 0.0
2017-Apr-19 04:30N 37°56' E 023°38'  

Dump ship's entire track history